createdAt,value
2023-04-12T00:06:50.553Z,15.75
2023-04-12T00:16:53.914Z,9.13
2023-04-12T00:26:58.291Z,8.15
2023-04-12T00:37:01.639Z,8.70
2023-04-12T00:47:07.050Z,12.30
2023-04-12T00:57:11.002Z,8.13
2023-04-12T01:07:26.579Z,9.90
2023-04-12T01:17:32.222Z,7.50
2023-04-12T01:27:43.371Z,9.48
2023-04-12T01:37:47.101Z,14.32
2023-04-12T01:47:54.417Z,10.65
2023-04-12T01:57:58.885Z,9.77
2023-04-12T02:08:04.735Z,8.57
2023-04-12T02:18:07.803Z,10.57
2023-04-12T02:28:12.134Z,9.63
2023-04-12T02:38:16.932Z,8.50
2023-04-12T02:48:21.826Z,7.05
2023-04-12T02:58:28.235Z,4.35
2023-04-12T03:08:32.668Z,8.43
2023-04-12T03:18:35.948Z,6.60
2023-04-12T03:28:41.286Z,6.30
2023-04-12T03:38:44.261Z,7.90
2023-04-12T03:48:50.825Z,7.43
2023-04-12T03:58:54.586Z,6.68
2023-04-12T04:08:59.842Z,4.72
2023-04-12T04:19:04.216Z,6.47
2023-04-12T04:29:08.684Z,6.15
2023-04-12T04:39:15.411Z,5.38
2023-04-12T04:49:21.884Z,4.10
2023-04-12T04:59:25.084Z,5.80
2023-04-12T05:09:34.312Z,7.65
2023-04-12T05:19:37.395Z,4.30
2023-04-12T05:29:42.054Z,6.70
2023-04-12T05:39:46.073Z,7.55
2023-04-12T05:49:53.179Z,6.53
2023-04-12T05:59:56.333Z,4.03
2023-04-12T06:10:01.036Z,6.30
2023-04-12T06:20:06.154Z,5.10
2023-04-12T06:40:15.801Z,8.77
2023-04-12T06:50:20.208Z,8.38
2023-04-12T07:00:23.816Z,7.87
2023-04-12T07:10:28.252Z,10.13
2023-04-12T07:20:31.204Z,11.27
2023-04-12T07:30:35.906Z,8.10
2023-04-12T07:40:39.221Z,10.15
2023-04-12T07:50:43.870Z,12.98
2023-04-12T08:00:47.979Z,9.45
2023-04-12T08:10:53.229Z,13.77
2023-04-12T08:20:56.262Z,13.48
2023-04-12T08:31:01.087Z,15.93
2023-04-12T08:41:05.619Z,16.02
2023-04-12T08:51:14.333Z,14.73
2023-04-12T09:01:19.096Z,15.13
2023-04-12T09:11:28.741Z,21.63
2023-04-12T09:21:32.952Z,19.50
2023-04-12T09:31:37.376Z,20.47
2023-04-12T09:41:40.571Z,30.60
2023-04-12T09:51:52.405Z,31.67
2023-04-12T10:01:56.005Z,23.77
2023-04-12T10:12:03.238Z,28.00
2023-04-12T10:22:06.480Z,25.45
2023-04-12T10:32:24.089Z,22.50
2023-04-12T10:42:31.953Z,23.73
2023-04-12T10:52:41.748Z,23.17
2023-04-12T11:03:07.777Z,28.15
2023-04-12T11:13:12.542Z,31.75
2023-04-12T11:23:16.441Z,23.23
2023-04-12T11:33:34.354Z,34.50
2023-04-12T11:43:39.562Z,28.77
2023-04-12T11:53:46.336Z,28.40
2023-04-12T12:03:50.507Z,24.27
2023-04-12T12:13:56.403Z,14.30
2023-04-12T12:23:59.963Z,20.60
2023-04-12T12:34:07.509Z,16.20
2023-04-12T12:44:12.348Z,22.70
2023-04-12T12:54:31.706Z,12.73
2023-04-12T13:04:39.660Z,16.07
2023-04-12T13:14:44.156Z,20.50
2023-04-12T13:24:47.356Z,10.23
2023-04-12T13:34:51.753Z,9.38
2023-04-12T13:44:54.879Z,5.97
2023-04-12T13:54:59.796Z,3.50
2023-04-12T14:05:03.109Z,3.97
2023-04-12T14:15:08.939Z,5.95
2023-04-12T14:25:12.240Z,3.33
2023-04-12T14:35:16.967Z,4.03
2023-04-12T14:45:20.990Z,1.75
2023-04-12T14:55:26.217Z,2.75
2023-04-12T15:05:29.331Z,4.63
2023-04-12T15:15:33.751Z,4.57
2023-04-12T15:25:36.936Z,15.57
2023-04-12T15:35:41.390Z,23.73
2023-04-12T15:45:44.966Z,4.13
2023-04-12T15:55:54.745Z,6.10
2023-04-12T16:05:57.794Z,8.15
2023-04-12T16:16:02.225Z,5.85
2023-04-12T16:26:06.442Z,5.43
2023-04-12T16:36:10.896Z,10.50
2023-04-12T16:46:14.008Z,8.07
2023-04-12T16:56:19.955Z,8.70
2023-04-12T17:06:23.318Z,7.07
2023-04-12T17:16:28.362Z,9.65
2023-04-12T17:26:32.381Z,12.38
2023-04-12T17:36:38.492Z,8.85
2023-04-12T17:46:41.954Z,9.57
2023-04-12T17:56:49.349Z,8.95
2023-04-12T18:06:52.382Z,8.27
2023-04-12T18:16:56.817Z,7.85
2023-04-12T18:27:00.488Z,12.53
2023-04-12T18:37:06.157Z,6.30
2023-04-12T18:47:09.694Z,4.80
2023-04-12T18:57:15.404Z,5.15
2023-04-12T19:07:18.766Z,10.48
2023-04-12T19:17:24.983Z,6.90
2023-04-12T19:27:28.204Z,4.63
2023-04-12T19:37:34.119Z,5.88
2023-04-12T19:47:44.606Z,15.30
2023-04-12T19:57:49.246Z,7.25
2023-04-12T20:07:55.949Z,3.80
2023-04-12T20:18:00.575Z,5.45
2023-04-12T20:28:04.541Z,3.03
2023-04-12T20:38:09.130Z,5.03
2023-04-12T20:48:12.520Z,3.37
2023-04-12T20:58:17.959Z,3.85
2023-04-12T21:08:20.960Z,4.13
2023-04-12T21:18:25.444Z,6.05
2023-04-12T21:28:29.786Z,1.80
2023-04-12T21:38:34.299Z,4.93
2023-04-12T21:48:37.782Z,7.27
2023-04-12T21:58:42.488Z,3.95
2023-04-12T22:08:45.869Z,5.75
2023-04-12T22:18:50.845Z,2.53
2023-04-12T22:38:58.683Z,3.10
2023-04-12T22:49:02.070Z,4.10
2023-04-12T22:59:06.689Z,5.63
2023-04-12T23:09:10.512Z,7.20
2023-04-12T23:19:16.651Z,6.22
2023-04-12T23:29:19.726Z,6.20
2023-04-12T23:39:24.082Z,6.07
2023-04-12T23:49:27.146Z,4.67
2023-04-12T23:59:31.569Z,3.42
